Terminal Aerodrome Forecast
Issued by NWS Charleston, WV

Current Version | Previous Version | Graphics & Text | Print | Product List | Glossary On
Versions: 1 2 3 4 5 6 7 8 9 10 11 12 13 14 15 16 17 18 19 20 21 22 23 24 25 26 27
000
FTUS41 KRLX 170222 AAA
TAFEKN
TAF AMD
KEKN 170222Z 1702/1724 32005KT 3SM -SN FEW019 OVC035
     FM170600 30003KT 6SM -SN OVC016
     FM170700 00000KT P6SM BKN016
     FM171500 00000KT P6SM BKN030
     FM171800 30005KT P6SM SCT035=

USA.gov is the U.S. government's official web portal to all federal, state and local government web resources and services.